• Join FlightAware (Why Join?)
  • Login
  • US Flag 
12:44AM EDT


 

Airport Tracker/Info


-or-


 

Live Flight TrackerFlight Track Log ✈ DAL3970 ✈ 22-Apr-2013 ✈ KCWA - KDTW

Flight Track Log - Related Links

Times and Time Zones

All times are in EDT time to prevent confusion due to time zone crossing. See the DAL3970 flight status page for this flight to view local times or setup timezone preferences in your user account.

Time Position Orientation Groundspeed Altitude Reporting Facility
EDT Latitude Longitude Course Direction KTS MPH feet Rate Location/Type
09:09AM 44.7786 -89.5642 109° East 189 217 3,500  Level Minneapolis Center
09:10AM 44.7667 -89.4906 103° East 227 261 5,100 2,520 Climbing Minneapolis Center
09:11AM 44.7168 -89.2724 107° East  Level FlightAware Approximate
09:11AM 44.7458 -89.3561 102° East 290 334 8,700  Level Minneapolis Center
09:12AM 44.6892 -89.1438 107° East  Level FlightAware Approximate
09:12AM 44.7275 -89.2367 102° East 299 344 11,100  Level Minneapolis Center
09:13AM 44.6819 -89.0111 109° East  Level FlightAware Approximate
09:13AM 44.7064 -89.1106 103° East 341 392 12,700  Level Minneapolis Center
09:14AM 44.6503 -88.8845 109° East  Level FlightAware Approximate
09:14AM 44.6831 -88.9664 103° East 358 412 14,900  Level Minneapolis Center
09:15AM 44.6589 -88.8219 103° East 373 429 16,900 1,620 Climbing Minneapolis Center
09:16AM 44.6347 -88.6706 103° East 392 451 18,300 1,440 Climbing Minneapolis Center
09:17AM 44.6092 -88.5211 103° East 395 455 19,900 1,500 Climbing Minneapolis Center
09:18AM 44.5828 -88.3647 103° East 407 468 21,400 1,320 Climbing Minneapolis Center
09:19AM 44.5550 -88.2072 104° East 413 475 22,600 1,140 Climbing Minneapolis Center
09:20AM 44.4914 -88.0728 124° Southeast 414 476 23,800 1,020 Climbing Minneapolis Center
09:21AM 44.4228 -87.9378 125° Southeast 422 486 24,700 840 Climbing Minneapolis Center
09:22AM 44.3539 -87.8025 125° Southeast 426 490 25,600 900 Climbing Minneapolis Center
09:23AM 44.2686 -87.6408 126° Southeast 439 505 26,600 660 Climbing Minneapolis Center
09:24AM 44.1961 -87.5008 126° Southeast 444 511 27,000 180 Climbing Minneapolis Center
09:25AM 44.1206 -87.3578 126° Southeast 454 522 27,000  Level Minneapolis Center
09:26AM 44.0469 -87.2172 126° Southeast 465 535 27,000  Level Minneapolis Center
09:28AM 43.9703 -87.0722 126° Southeast 465 535 27,000  Level Minneapolis Center
09:29AM 43.8783 -86.8994 126° Southeast 465 535 27,000  Level Minneapolis Center
09:30AM 43.8022 -86.7583 127° Southeast 459 528 27,000  Level Minneapolis Center
09:31AM 43.7278 -86.6164 126° Southeast 458 527 27,000  Level Minneapolis Center
09:32AM 43.6517 -86.4769 127° Southeast 456 525 27,000  Level Minneapolis Center
09:33AM 43.5917 -86.3239 118° Southeast 461 531 27,000  Level Chicago Center
09:34AM 43.5419 -86.1647 113° Southeast 453 521 27,000  Level Chicago Center
09:35AM 43.4922 -86.0025 113° Southeast 456 525 27,000 -420 Level Chicago Center
09:36AM 43.4411 -85.8403 113° Southeast 459 528 26,200 -1,080 Descending Chicago Center
09:36AM 43.4008 -85.7103 113° Southeast 457 526 25,100 -1,440 Descending Minneapolis Center
09:37AM 43.3503 -85.5489 113° Southeast 456 525 23,700 -1,380 Descending Minneapolis Center
09:38AM 43.3278 -85.4756 113° Southeast 456 525 23,100 -540 Descending Cleveland Center
09:39AM 43.2917 -85.3628 114° Southeast 446 513 23,000 -60 Descending Chicago Center
09:40AM 43.2414 -85.1892 112° Southeast 409 471 23,000  Level Chicago Center
09:41AM 43.2142 -85.0328 103° East 418 481 23,000  Level Chicago Center
09:42AM 43.1792 -84.8656 106° East 417 480 23,000 -480 Level Cleveland Center
09:43AM 43.1514 -84.7100 104° East 422 486 22,100 -1,320 Descending Cleveland Center
09:44AM 43.1233 -84.5572 104° East 422 486 20,400 -1,740 Descending Cleveland Center
09:45AM 43.0906 -84.4131 107° East 410 472 18,700 -1,500 Descending Cleveland Center
09:46AM 43.0697 -84.2894 103° East 395 455 17,500 -1,620 Descending Cleveland Center
09:47AM 43.0394 -84.1228 104° East 370 426 15,400 -1,860 Descending Cleveland Center
09:48AM 43.0175 -84.0194 106° East 362 417 14,100 -1,740 Descending Cleveland Center
09:49AM 42.9958 -83.9044 104° East 345 397 12,500 -1,260 Descending Cleveland Center
09:50AM 42.9589 -83.8144 119° Southeast 286 329 11,900 -360 Descending Cleveland Center
09:50AM 42.9467 -83.8025 144° Southeast 298 343 12,100 60 Climbing Cleveland Center
09:51AM 42.8769 -83.7594 156° South 298 343 12,000 -60 Descending Cleveland Center
09:52AM 42.8072 -83.7189 157° South 296 341 12,000 60 Level Cleveland Center
09:52AM 42.7950 -83.7128 160° South 285 328 12,100 -1,200 Climbing Cleveland Center
09:53AM 42.7333 -83.6758 156° South 291 335 10,800 -1,440 Descending Cleveland Center
09:53AM 42.7211 -83.6694 159° South 290 334 10,700 -1,500 Descending Cleveland Center
09:54AM 42.6717 -83.6117 139° Southeast 280 322 9,300 -1,620 Descending FAA TRACON SMA TRACON (SMA)
09:54AM 42.6492 -83.5847 139° Southeast 280 322 8,900 -1,200 Descending FAA TRACON SMA TRACON (SMA)
09:54AM 42.6314 -83.5636 139° Southeast 278 320 8,500 -1,440 Descending FAA TRACON SMA TRACON (SMA)
09:55AM 42.6133 -83.5428 140° Southeast 277 319 8,000 -1,680 Descending FAA TRACON SMA TRACON (SMA)
09:55AM 42.5908 -83.5161 139° Southeast 277 319 7,400 -1,680 Descending FAA TRACON SMA TRACON (SMA)
09:55AM 42.5739 -83.4972 141° Southeast 217 250 6,900 -1,380 Descending FAA TRACON SMA TRACON (SMA)
09:56AM 42.5561 -83.4747 137° Southeast 271 312 6,500 -1,320 Descending FAA TRACON SMA TRACON (SMA)
09:56AM 42.5350 -83.4494 139° Southeast 262 302 6,000 -780 Descending FAA TRACON SMA TRACON (SMA)
09:56AM 42.5183 -83.4297 139° Southeast 258 297 6,000  Level FAA TRACON SMA TRACON (SMA)
09:57AM 42.4983 -83.4106 145° Southeast 257 296 6,000 -840 Level Cleveland Center
09:57AM 42.4642 -83.3658 136° Southeast 255 293 5,200 -1,200 Descending FAA TRACON SMA TRACON (SMA)
09:58AM 42.4481 -83.3467 139° Southeast 253 291 4,800 -1,260 Descending FAA TRACON SMA TRACON (SMA)
09:58AM 42.4292 -83.3350 155° Southeast 242 278 4,400 -1,200 Descending FAA TRACON SMA TRACON (SMA)
09:58AM 42.4036 -83.3283 169° South 234 269 4,000 -1,080 Descending FAA TRACON SMA TRACON (SMA)
09:59AM 42.3844 -83.3242 171° South 228 262 3,700 -1,080 Descending FAA TRACON SMA TRACON (SMA)
09:59AM 42.3642 -83.3194 170° South 202 232 3,300 -1,200 Descending FAA TRACON SMA TRACON (SMA)